Кокшетау

Карта отелей и гостиниц, располагающихся рядом с аэропортом Кокшетау :

Кокшетау Акмолинская область 53° 19' 48.9612" N, 69° 35' 44.7" E
Код аэродрома ИКАО
UACK
Код аэродрома RU
УАЦК
Координаты
N53.33027° E069.59575°
Превышение над уровнем моря
270
Основная полоса
02L/20R
Курс магнитный
020,5/200,5
Длина основной ВПП
2849
Ширина основной ВПП
45
Покрытие основной ВПП
Твёрдое (асфальтобетон)
Освещение ВПП
Постоянное
Тип: 
Аэродром
Принадлежность: 
ГА
Статус: 
Действующий
Страна: 
Казахстан
Регион: 
Акмолинская область
Дополнительная информация: 
Эксплуатант: АО Авиакомпания «Кокшетау». Классификационное число ВПП(PCN) 22/F/С/Y/T. Максимальный взлётный вес ВС — 171 тонна. Международный пассажирский терминал, оборудованный посадочной галереей с двумя телетрапами, введён в эксплуатацию в апреле 2012 года. Терминал обладает пропускной способностью 200 пассажиров в час.
Погода: 

Авиационная погода в Кокшетау

Регион: 
Погода METAR: 
UACK 211030Z 22011MPS CAVOK 31/01 Q0995 NOSIG RMK QFE723/0965
Время наблюдения
2022-05-21T10:30:00Z
Температура C
31.0
Точка росы
1.0
Направление ветра
220
Скорость ветра (узлы)
21
Метео видимость
6.21
Облачность
CAVOK
Нижняя граница облачности (футы)
Явления погоды
Условия полета
VFR
Аэропорт подробнее: 


Найти трансфер

С помощью этой формы Вы можете найти трансфер из аэропорта Кокшетау в город, аэропорт или вокзал:

Погода в аэропортах:

Авиационная погода в Воронеже

Регион: 
Погода METAR: 
UUOO 212300Z 08004MPS 9999 -SHRA BKN011 BKN///CB 09/08 Q1000 R12/290155 NOSIG RMK QFE736
Время наблюдения
2022-05-21T23:00:00Z
Температура C
9.0
Точка росы
8.0
Направление ветра
80
Скорость ветра (узлы)
8
Метео видимость
6.21
Облачность
BKN
Нижняя граница облачности (футы)
1100
Явления погоды
-SHRA
Условия полета
MVFR
Аэропорт подробнее: 
BKN – значительная (рассеянная, разорванная) облачность;
-SHRA - слабый ливневой дождь;

Авиационная погода в Храброво

Регион: 
Погода METAR: 
UMKK 212300Z 29009MPS 9000 -RA BKN005 OVC017 09/09 Q1007 R24/290095 NOSIG RMK QBB150 OBST OBSC QFE754/1005
Время наблюдения
2022-05-21T23:00:00Z
Температура C
9.0
Точка росы
9.0
Направление ветра
290
Скорость ветра (узлы)
17
Метео видимость
5.59
Облачность
BKN
OVC
Нижняя граница облачности (футы)
500
1700
Явления погоды
-RA
Условия полета
IFR
Аэропорт подробнее: 
BKN – значительная (рассеянная, разорванная) облачность; OVC – сплошная облачность;
-RA - слабый дождь;

Авиационная погода в Белгороде

Регион: 
Погода METAR: 
UUOB 212300Z 03001MPS 3000 -SHRA BR OVC010CB 13/12 Q0997 R11/290060 NOSIG
Время наблюдения
2022-05-21T23:00:00Z
Температура C
13.0
Точка росы
12.0
Направление ветра
30
Скорость ветра (узлы)
2
Метео видимость
1.86
Облачность
OVC
Нижняя граница облачности (футы)
1000
Явления погоды
-SHRA BR
Условия полета
IFR
Аэропорт подробнее: 
OVC – сплошная облачность;
-SHRA - слабый ливневой дождь; BR – дымка (видимость от 1 до 9 км);

Авиационная погода в Ивало

Регион: 
Погода METAR: 
EFIV 212250Z AUTO 11003KT 9999 -RA FEW016 BKN035 07/06 Q1011
Время наблюдения
2022-05-21T22:50:00Z
Температура C
7.0
Точка росы
6.0
Направление ветра
110
Скорость ветра (узлы)
3
Метео видимость
6.21
Облачность
FEW
BKN
Нижняя граница облачности (футы)
1600
3500
Явления погоды
-RA
Условия полета
VFR
FEW – незначительная облачность; BKN – значительная (рассеянная, разорванная) облачность;
-RA - слабый дождь;